sensor_id;sensor_type;location;lat;lon;timestamp;P1;durP1;ratioP1;P2;durP2;ratioP2
51459;SDS011;37534;39.772;2.718;2024-02-04T00:00:24;38.55;;;22.42;;
51459;SDS011;37534;39.772;2.718;2024-02-04T00:02:50;33.53;;;18.65;;
51459;SDS011;37534;39.772;2.718;2024-02-04T00:05:15;24.27;;;17.25;;
51459;SDS011;37534;39.772;2.718;2024-02-04T00:07:43;20.98;;;15.32;;
51459;SDS011;37534;39.772;2.718;2024-02-04T00:10:09;16.08;;;13.60;;
51459;SDS011;37534;39.772;2.718;2024-02-04T00:12:34;21.23;;;13.45;;
51459;SDS011;37534;39.772;2.718;2024-02-04T00:15:00;14.30;;;12.27;;
51459;SDS011;37534;39.772;2.718;2024-02-04T00:17:25;19.80;;;14.55;;
51459;SDS011;37534;39.772;2.718;2024-02-04T00:19:55;28.73;;;14.32;;
51459;SDS011;37534;39.772;2.718;2024-02-04T00:22:21;19.60;;;14.60;;
51459;SDS011;37534;39.772;2.718;2024-02-04T00:24:47;26.55;;;19.30;;
51459;SDS011;37534;39.772;2.718;2024-02-04T00:27:12;20.05;;;16.17;;
51459;SDS011;37534;39.772;2.718;2024-02-04T00:29:38;22.20;;;15.00;;
51459;SDS011;37534;39.772;2.718;2024-02-04T00:32:03;20.38;;;14.05;;
51459;SDS011;37534;39.772;2.718;2024-02-04T00:34:29;22.50;;;13.82;;
51459;SDS011;37534;39.772;2.718;2024-02-04T00:36:55;18.10;;;14.98;;
51459;SDS011;37534;39.772;2.718;2024-02-04T00:39:20;21.08;;;13.80;;
51459;SDS011;37534;39.772;2.718;2024-02-04T00:41:46;20.63;;;15.25;;
51459;SDS011;37534;39.772;2.718;2024-02-04T00:44:11;25.02;;;15.65;;
51459;SDS011;37534;39.772;2.718;2024-02-04T00:46:37;15.73;;;12.30;;
51459;SDS011;37534;39.772;2.718;2024-02-04T00:49:02;21.55;;;12.90;;
51459;SDS011;37534;39.772;2.718;2024-02-04T00:51:28;17.98;;;12.82;;
51459;SDS011;37534;39.772;2.718;2024-02-04T00:53:53;14.38;;;11.60;;
51459;SDS011;37534;39.772;2.718;2024-02-04T00:56:19;14.65;;;10.95;;
51459;SDS011;37534;39.772;2.718;2024-02-04T00:58:45;16.77;;;13.18;;
51459;SDS011;37534;39.772;2.718;2024-02-04T01:01:10;20.70;;;12.88;;
51459;SDS011;37534;39.772;2.718;2024-02-04T01:03:36;13.63;;;12.20;;
51459;SDS011;37534;39.772;2.718;2024-02-04T01:06:01;14.45;;;11.68;;
51459;SDS011;37534;39.772;2.718;2024-02-04T01:08:27;13.82;;;10.63;;
51459;SDS011;37534;39.772;2.718;2024-02-04T01:10:52;19.75;;;11.25;;
51459;SDS011;37534;39.772;2.718;2024-02-04T01:13:18;14.55;;;10.82;;
51459;SDS011;37534;39.772;2.718;2024-02-04T01:15:43;12.80;;;10.88;;
51459;SDS011;37534;39.772;2.718;2024-02-04T01:18:09;18.17;;;10.68;;
51459;SDS011;37534;39.772;2.718;2024-02-04T01:20:35;10.73;;;9.43;;
51459;SDS011;37534;39.772;2.718;2024-02-04T01:23:00;12.57;;;11.07;;
51459;SDS011;37534;39.772;2.718;2024-02-04T01:25:26;13.82;;;10.90;;
51459;SDS011;37534;39.772;2.718;2024-02-04T01:27:51;21.98;;;12.35;;
51459;SDS011;37534;39.772;2.718;2024-02-04T01:30:17;19.83;;;10.32;;
51459;SDS011;37534;39.772;2.718;2024-02-04T01:32:42;12.23;;;10.65;;
51459;SDS011;37534;39.772;2.718;2024-02-04T01:35:08;15.48;;;10.98;;
51459;SDS011;37534;39.772;2.718;2024-02-04T01:37:33;15.60;;;13.68;;
51459;SDS011;37534;39.772;2.718;2024-02-04T01:39:59;16.55;;;10.00;;
51459;SDS011;37534;39.772;2.718;2024-02-04T01:42:24;10.95;;;7.53;;
51459;SDS011;37534;39.772;2.718;2024-02-04T01:44:50;10.93;;;8.20;;
51459;SDS011;37534;39.772;2.718;2024-02-04T01:47:16;7.97;;;6.80;;
51459;SDS011;37534;39.772;2.718;2024-02-04T01:49:42;10.57;;;7.75;;
51459;SDS011;37534;39.772;2.718;2024-02-04T01:52:10;15.60;;;11.13;;
51459;SDS011;37534;39.772;2.718;2024-02-04T01:54:37;11.57;;;9.35;;
51459;SDS011;37534;39.772;2.718;2024-02-04T01:57:05;11.57;;;7.80;;
51459;SDS011;37534;39.772;2.718;2024-02-04T01:59:31;12.50;;;8.20;;
51459;SDS011;37534;39.772;2.718;2024-02-04T02:02:00;10.52;;;7.18;;
51459;SDS011;37534;39.772;2.718;2024-02-04T02:04:26;10.82;;;6.93;;
51459;SDS011;37534;39.772;2.718;2024-02-04T02:06:53;11.98;;;8.18;;
51459;SDS011;37534;39.772;2.718;2024-02-04T02:09:19;8.82;;;8.02;;
51459;SDS011;37534;39.772;2.718;2024-02-04T02:11:46;7.35;;;6.65;;
51459;SDS011;37534;39.772;2.718;2024-02-04T02:14:18;12.18;;;7.97;;
51459;SDS011;37534;39.772;2.718;2024-02-04T02:16:48;14.05;;;8.25;;
51459;SDS011;37534;39.772;2.718;2024-02-04T02:19:32;8.18;;;7.25;;
51459;SDS011;37534;39.772;2.718;2024-02-04T02:22:14;8.95;;;6.28;;
51459;SDS011;37534;39.772;2.718;2024-02-04T02:27:46;26.25;;;12.63;;
51459;SDS011;37534;39.772;2.718;2024-02-04T02:30:15;11.70;;;10.13;;
51459;SDS011;37534;39.772;2.718;2024-02-04T02:32:42;14.25;;;9.40;;
51459;SDS011;37534;39.772;2.718;2024-02-04T02:35:09;10.55;;;9.45;;
51459;SDS011;37534;39.772;2.718;2024-02-04T02:37:44;10.63;;;8.75;;
51459;SDS011;37534;39.772;2.718;2024-02-04T02:40:50;23.73;;;16.90;;
51459;SDS011;37534;39.772;2.718;2024-02-04T02:43:19;46.83;;;20.20;;
51459;SDS011;37534;39.772;2.718;2024-02-04T02:45:46;10.25;;;9.05;;
51459;SDS011;37534;39.772;2.718;2024-02-04T02:48:12;12.40;;;8.50;;
51459;SDS011;37534;39.772;2.718;2024-02-04T02:50:38;10.68;;;7.88;;
51459;SDS011;37534;39.772;2.718;2024-02-04T02:53:04;9.00;;;7.20;;
51459;SDS011;37534;39.772;2.718;2024-02-04T02:55:30;12.48;;;11.23;;
51459;SDS011;37534;39.772;2.718;2024-02-04T02:57:56;12.77;;;9.68;;
51459;SDS011;37534;39.772;2.718;2024-02-04T03:00:21;11.02;;;8.30;;
51459;SDS011;37534;39.772;2.718;2024-02-04T03:02:47;9.52;;;6.72;;
51459;SDS011;37534;39.772;2.718;2024-02-04T03:05:13;8.38;;;5.82;;
51459;SDS011;37534;39.772;2.718;2024-02-04T03:07:40;9.10;;;5.70;;
51459;SDS011;37534;39.772;2.718;2024-02-04T03:10:06;10.63;;;7.53;;
51459;SDS011;37534;39.772;2.718;2024-02-04T03:12:31;7.60;;;6.07;;
51459;SDS011;37534;39.772;2.718;2024-02-04T03:14:57;9.02;;;6.72;;
51459;SDS011;37534;39.772;2.718;2024-02-04T03:17:22;9.45;;;7.50;;
51459;SDS011;37534;39.772;2.718;2024-02-04T03:19:48;9.63;;;8.60;;
51459;SDS011;37534;39.772;2.718;2024-02-04T03:22:16;9.75;;;7.78;;
51459;SDS011;37534;39.772;2.718;2024-02-04T03:24:42;8.57;;;7.78;;
51459;SDS011;37534;39.772;2.718;2024-02-04T03:27:08;8.18;;;7.35;;
51459;SDS011;37534;39.772;2.718;2024-02-04T03:29:34;10.77;;;7.05;;
51459;SDS011;37534;39.772;2.718;2024-02-04T03:31:59;10.13;;;7.60;;
51459;SDS011;37534;39.772;2.718;2024-02-04T03:34:25;8.90;;;7.03;;
51459;SDS011;37534;39.772;2.718;2024-02-04T03:36:50;10.68;;;6.30;;
51459;SDS011;37534;39.772;2.718;2024-02-04T03:39:16;8.13;;;7.30;;
51459;SDS011;37534;39.772;2.718;2024-02-04T03:41:41;7.47;;;6.22;;
51459;SDS011;37534;39.772;2.718;2024-02-04T03:44:07;8.18;;;5.75;;
51459;SDS011;37534;39.772;2.718;2024-02-04T03:46:32;5.38;;;4.85;;
51459;SDS011;37534;39.772;2.718;2024-02-04T03:48:58;9.55;;;6.70;;
51459;SDS011;37534;39.772;2.718;2024-02-04T03:51:23;9.77;;;4.07;;
51459;SDS011;37534;39.772;2.718;2024-02-04T03:53:49;5.40;;;4.38;;
51459;SDS011;37534;39.772;2.718;2024-02-04T03:56:16;4.38;;;3.95;;
51459;SDS011;37534;39.772;2.718;2024-02-04T03:58:41;6.07;;;4.22;;
51459;SDS011;37534;39.772;2.718;2024-02-04T04:01:10;5.63;;;4.55;;
51459;SDS011;37534;39.772;2.718;2024-02-04T04:03:39;4.93;;;4.55;;
51459;SDS011;37534;39.772;2.718;2024-02-04T04:06:05;4.75;;;4.32;;
51459;SDS011;37534;39.772;2.718;2024-02-04T04:08:31;7.20;;;5.13;;
51459;SDS011;37534;39.772;2.718;2024-02-04T04:10:56;5.03;;;4.40;;
51459;SDS011;37534;39.772;2.718;2024-02-04T04:13:22;5.13;;;4.18;;
51459;SDS011;37534;39.772;2.718;2024-02-04T04:15:47;4.30;;;4.00;;
51459;SDS011;37534;39.772;2.718;2024-02-04T04:18:13;4.13;;;3.72;;
51459;SDS011;37534;39.772;2.718;2024-02-04T04:20:39;6.07;;;3.80;;
51459;SDS011;37534;39.772;2.718;2024-02-04T04:23:05;5.60;;;4.53;;
51459;SDS011;37534;39.772;2.718;2024-02-04T04:25:30;4.38;;;4.05;;
51459;SDS011;37534;39.772;2.718;2024-02-04T04:27:56;8.90;;;8.07;;
51459;SDS011;37534;39.772;2.718;2024-02-04T04:30:23;14.43;;;7.88;;
51459;SDS011;37534;39.772;2.718;2024-02-04T04:32:49;6.97;;;5.38;;
51459;SDS011;37534;39.772;2.718;2024-02-04T04:35:14;7.63;;;4.53;;
51459;SDS011;37534;39.772;2.718;2024-02-04T04:37:40;7.80;;;4.38;;
51459;SDS011;37534;39.772;2.718;2024-02-04T04:40:05;4.93;;;3.92;;
51459;SDS011;37534;39.772;2.718;2024-02-04T04:42:31;9.82;;;4.35;;
51459;SDS011;37534;39.772;2.718;2024-02-04T04:44:57;6.00;;;3.63;;
51459;SDS011;37534;39.772;2.718;2024-02-04T04:47:22;12.52;;;4.32;;
51459;SDS011;37534;39.772;2.718;2024-02-04T04:49:48;9.00;;;4.63;;
51459;SDS011;37534;39.772;2.718;2024-02-04T04:52:13;5.70;;;3.95;;
51459;SDS011;37534;39.772;2.718;2024-02-04T04:54:39;6.57;;;4.40;;
51459;SDS011;37534;39.772;2.718;2024-02-04T04:57:05;4.20;;;3.72;;
51459;SDS011;37534;39.772;2.718;2024-02-04T04:59:30;6.28;;;4.60;;
51459;SDS011;37534;39.772;2.718;2024-02-04T05:01:56;6.10;;;3.97;;
51459;SDS011;37534;39.772;2.718;2024-02-04T05:04:21;6.53;;;3.53;;
51459;SDS011;37534;39.772;2.718;2024-02-04T05:06:50;5.80;;;3.55;;
51459;SDS011;37534;39.772;2.718;2024-02-04T05:09:16;4.47;;;4.07;;
51459;SDS011;37534;39.772;2.718;2024-02-04T05:11:42;6.32;;;4.15;;
51459;SDS011;37534;39.772;2.718;2024-02-04T05:14:07;3.85;;;3.45;;
51459;SDS011;37534;39.772;2.718;2024-02-04T05:16:33;3.85;;;2.97;;
51459;SDS011;37534;39.772;2.718;2024-02-04T05:18:58;4.70;;;4.07;;
51459;SDS011;37534;39.772;2.718;2024-02-04T05:21:24;5.50;;;3.78;;
51459;SDS011;37534;39.772;2.718;2024-02-04T05:23:49;4.25;;;3.95;;
51459;SDS011;37534;39.772;2.718;2024-02-04T05:26:17;3.72;;;3.42;;
51459;SDS011;37534;39.772;2.718;2024-02-04T05:28:43;3.40;;;3.10;;
51459;SDS011;37534;39.772;2.718;2024-02-04T05:31:09;4.18;;;3.33;;
51459;SDS011;37534;39.772;2.718;2024-02-04T05:33:34;5.75;;;3.90;;
51459;SDS011;37534;39.772;2.718;2024-02-04T05:36:00;13.45;;;3.95;;
51459;SDS011;37534;39.772;2.718;2024-02-04T05:38:25;4.53;;;3.88;;
51459;SDS011;37534;39.772;2.718;2024-02-04T05:40:51;5.00;;;3.63;;
51459;SDS011;37534;39.772;2.718;2024-02-04T05:43:16;5.90;;;3.97;;
51459;SDS011;37534;39.772;2.718;2024-02-04T05:45:42;5.03;;;4.53;;
51459;SDS011;37534;39.772;2.718;2024-02-04T05:48:08;5.38;;;4.38;;
51459;SDS011;37534;39.772;2.718;2024-02-04T05:50:34;11.35;;;6.53;;
51459;SDS011;37534;39.772;2.718;2024-02-04T05:52:59;5.82;;;5.18;;
51459;SDS011;37534;39.772;2.718;2024-02-04T05:55:25;6.32;;;4.65;;
51459;SDS011;37534;39.772;2.718;2024-02-04T05:57:51;6.82;;;4.50;;
51459;SDS011;37534;39.772;2.718;2024-02-04T06:00:16;5.78;;;4.88;;
51459;SDS011;37534;39.772;2.718;2024-02-04T06:02:42;4.80;;;4.40;;
51459;SDS011;37534;39.772;2.718;2024-02-04T06:05:09;5.45;;;4.45;;
51459;SDS011;37534;39.772;2.718;2024-02-04T06:07:35;7.63;;;5.15;;
51459;SDS011;37534;39.772;2.718;2024-02-04T06:10:00;7.03;;;5.32;;
51459;SDS011;37534;39.772;2.718;2024-02-04T06:12:28;10.38;;;4.15;;
51459;SDS011;37534;39.772;2.718;2024-02-04T06:14:54;5.80;;;4.22;;
51459;SDS011;37534;39.772;2.718;2024-02-04T06:17:20;6.75;;;5.28;;
51459;SDS011;37534;39.772;2.718;2024-02-04T06:19:45;6.10;;;4.57;;
51459;SDS011;37534;39.772;2.718;2024-02-04T06:22:11;4.78;;;4.38;;
51459;SDS011;37534;39.772;2.718;2024-02-04T06:24:36;4.93;;;4.53;;
51459;SDS011;37534;39.772;2.718;2024-02-04T06:27:04;5.40;;;3.90;;
51459;SDS011;37534;39.772;2.718;2024-02-04T06:29:30;5.55;;;4.53;;
51459;SDS011;37534;39.772;2.718;2024-02-04T06:31:55;6.18;;;3.70;;
51459;SDS011;37534;39.772;2.718;2024-02-04T06:34:21;4.72;;;4.00;;
51459;SDS011;37534;39.772;2.718;2024-02-04T06:36:46;3.35;;;3.05;;
51459;SDS011;37534;39.772;2.718;2024-02-04T06:39:12;4.68;;;3.58;;
51459;SDS011;37534;39.772;2.718;2024-02-04T06:41:38;2.80;;;2.60;;
51459;SDS011;37534;39.772;2.718;2024-02-04T06:44:04;48.08;;;29.20;;
51459;SDS011;37534;39.772;2.718;2024-02-04T06:46:30;23.55;;;15.95;;
51459;SDS011;37534;39.772;2.718;2024-02-04T06:48:55;23.13;;;17.65;;
51459;SDS011;37534;39.772;2.718;2024-02-04T06:51:21;7.20;;;5.65;;
51459;SDS011;37534;39.772;2.718;2024-02-04T06:53:47;5.65;;;4.32;;
51459;SDS011;37534;39.772;2.718;2024-02-04T06:56:13;10.80;;;9.65;;
51459;SDS011;37534;39.772;2.718;2024-02-04T06:58:39;4.78;;;4.22;;
51459;SDS011;37534;39.772;2.718;2024-02-04T07:01:05;5.75;;;4.97;;
51459;SDS011;37534;39.772;2.718;2024-02-04T07:03:30;5.55;;;4.60;;
51459;SDS011;37534;39.772;2.718;2024-02-04T07:05:57;6.03;;;5.32;;
51459;SDS011;37534;39.772;2.718;2024-02-04T07:08:23;7.78;;;5.07;;
51459;SDS011;37534;39.772;2.718;2024-02-04T07:10:48;4.68;;;4.28;;
51459;SDS011;37534;39.772;2.718;2024-02-04T07:13:14;7.30;;;4.95;;
51459;SDS011;37534;39.772;2.718;2024-02-04T07:15:40;5.15;;;4.43;;
51459;SDS011;37534;39.772;2.718;2024-02-04T07:18:05;5.22;;;4.65;;
51459;SDS011;37534;39.772;2.718;2024-02-04T07:20:31;19.00;;;13.90;;
51459;SDS011;37534;39.772;2.718;2024-02-04T07:22:56;14.00;;;11.38;;
51459;SDS011;37534;39.772;2.718;2024-02-04T07:25:22;14.27;;;12.18;;
51459;SDS011;37534;39.772;2.718;2024-02-04T07:27:48;16.08;;;14.48;;
51459;SDS011;37534;39.772;2.718;2024-02-04T07:30:14;9.68;;;7.72;;
51459;SDS011;37534;39.772;2.718;2024-02-04T07:32:39;25.55;;;23.10;;
51459;SDS011;37534;39.772;2.718;2024-02-04T07:35:05;15.93;;;9.98;;
51459;SDS011;37534;39.772;2.718;2024-02-04T07:37:31;15.38;;;9.70;;
51459;SDS011;37534;39.772;2.718;2024-02-04T07:39:56;13.30;;;11.18;;
51459;SDS011;37534;39.772;2.718;2024-02-04T07:42:22;14.98;;;11.57;;
51459;SDS011;37534;39.772;2.718;2024-02-04T07:44:47;10.82;;;8.93;;
51459;SDS011;37534;39.772;2.718;2024-02-04T07:47:13;12.10;;;9.50;;
51459;SDS011;37534;39.772;2.718;2024-02-04T07:49:38;13.15;;;10.05;;
51459;SDS011;37534;39.772;2.718;2024-02-04T07:52:04;25.08;;;13.82;;
51459;SDS011;37534;39.772;2.718;2024-02-04T07:54:30;14.55;;;12.95;;
51459;SDS011;37534;39.772;2.718;2024-02-04T07:56:55;18.27;;;16.23;;
51459;SDS011;37534;39.772;2.718;2024-02-04T07:59:21;19.88;;;15.90;;
51459;SDS011;37534;39.772;2.718;2024-02-04T08:01:47;19.67;;;15.00;;
51459;SDS011;37534;39.772;2.718;2024-02-04T08:04:12;20.80;;;12.02;;
51459;SDS011;37534;39.772;2.718;2024-02-04T08:06:38;9.85;;;8.95;;
51459;SDS011;37534;39.772;2.718;2024-02-04T08:09:03;38.65;;;27.88;;
51459;SDS011;37534;39.772;2.718;2024-02-04T08:11:30;65.70;;;39.33;;
51459;SDS011;37534;39.772;2.718;2024-02-04T08:13:55;16.80;;;12.07;;
51459;SDS011;37534;39.772;2.718;2024-02-04T08:16:21;19.70;;;16.35;;
51459;SDS011;37534;39.772;2.718;2024-02-04T08:18:46;84.88;;;55.42;;
51459;SDS011;37534;39.772;2.718;2024-02-04T08:21:12;17.27;;;13.63;;
51459;SDS011;37534;39.772;2.718;2024-02-04T08:23:37;9.43;;;7.13;;
51459;SDS011;37534;39.772;2.718;2024-02-04T08:26:04;39.70;;;25.45;;
51459;SDS011;37534;39.772;2.718;2024-02-04T08:28:30;33.83;;;26.90;;
51459;SDS011;37534;39.772;2.718;2024-02-04T08:30:56;33.35;;;23.73;;
51459;SDS011;37534;39.772;2.718;2024-02-04T08:33:21;18.02;;;12.70;;
51459;SDS011;37534;39.772;2.718;2024-02-04T08:35:47;16.15;;;11.57;;
51459;SDS011;37534;39.772;2.718;2024-02-04T08:38:13;13.57;;;12.02;;
51459;SDS011;37534;39.772;2.718;2024-02-04T08:40:39;16.40;;;12.07;;
51459;SDS011;37534;39.772;2.718;2024-02-04T08:43:05;18.17;;;11.07;;
51459;SDS011;37534;39.772;2.718;2024-02-04T08:45:30;14.13;;;10.70;;
51459;SDS011;37534;39.772;2.718;2024-02-04T08:47:56;16.52;;;10.18;;
51459;SDS011;37534;39.772;2.718;2024-02-04T08:50:21;25.98;;;18.35;;
51459;SDS011;37534;39.772;2.718;2024-02-04T08:52:47;40.63;;;27.92;;
51459;SDS011;37534;39.772;2.718;2024-02-04T08:55:12;19.33;;;13.85;;
51459;SDS011;37534;39.772;2.718;2024-02-04T08:57:38;23.92;;;18.58;;
51459;SDS011;37534;39.772;2.718;2024-02-04T09:00:04;26.67;;;20.33;;
51459;SDS011;37534;39.772;2.718;2024-02-04T09:02:34;16.73;;;14.07;;
51459;SDS011;37534;39.772;2.718;2024-02-04T09:05:00;18.48;;;11.55;;
51459;SDS011;37534;39.772;2.718;2024-02-04T09:07:26;18.52;;;13.48;;
51459;SDS011;37534;39.772;2.718;2024-02-04T09:09:51;17.40;;;14.85;;
51459;SDS011;37534;39.772;2.718;2024-02-04T09:12:17;23.10;;;15.70;;
51459;SDS011;37534;39.772;2.718;2024-02-04T09:14:45;15.48;;;13.85;;
51459;SDS011;37534;39.772;2.718;2024-02-04T09:17:11;20.83;;;13.80;;
51459;SDS011;37534;39.772;2.718;2024-02-04T09:19:38;22.95;;;15.57;;
51459;SDS011;37534;39.772;2.718;2024-02-04T09:22:04;31.45;;;22.38;;
51459;SDS011;37534;39.772;2.718;2024-02-04T09:24:29;18.67;;;16.33;;
51459;SDS011;37534;39.772;2.718;2024-02-04T09:26:55;16.70;;;13.13;;
51459;SDS011;37534;39.772;2.718;2024-02-04T09:29:21;14.68;;;11.73;;
51459;SDS011;37534;39.772;2.718;2024-02-04T09:31:46;11.43;;;8.93;;
51459;SDS011;37534;39.772;2.718;2024-02-04T09:34:12;10.93;;;7.05;;
51459;SDS011;37534;39.772;2.718;2024-02-04T09:36:37;9.75;;;7.78;;
51459;SDS011;37534;39.772;2.718;2024-02-04T09:39:03;16.50;;;11.23;;
51459;SDS011;37534;39.772;2.718;2024-02-04T09:41:28;13.07;;;8.32;;
51459;SDS011;37534;39.772;2.718;2024-02-04T09:43:54;11.60;;;8.23;;
51459;SDS011;37534;39.772;2.718;2024-02-04T09:46:21;17.08;;;10.80;;
51459;SDS011;37534;39.772;2.718;2024-02-04T09:48:47;20.33;;;12.13;;
51459;SDS011;37534;39.772;2.718;2024-02-04T09:51:15;19.55;;;13.23;;
51459;SDS011;37534;39.772;2.718;2024-02-04T09:53:43;19.92;;;13.48;;
51459;SDS011;37534;39.772;2.718;2024-02-04T09:56:09;23.45;;;14.25;;
51459;SDS011;37534;39.772;2.718;2024-02-04T09:58:37;8.65;;;7.03;;
51459;SDS011;37534;39.772;2.718;2024-02-04T10:01:06;17.00;;;11.43;;
51459;SDS011;37534;39.772;2.718;2024-02-04T10:03:35;14.52;;;9.32;;
51459;SDS011;37534;39.772;2.718;2024-02-04T10:06:00;14.40;;;8.55;;
51459;SDS011;37534;39.772;2.718;2024-02-04T10:08:26;9.13;;;7.43;;
51459;SDS011;37534;39.772;2.718;2024-02-04T10:10:54;13.30;;;10.35;;
51459;SDS011;37534;39.772;2.718;2024-02-04T10:13:20;15.07;;;10.70;;
51459;SDS011;37534;39.772;2.718;2024-02-04T10:15:47;16.40;;;11.05;;
51459;SDS011;37534;39.772;2.718;2024-02-04T10:18:13;10.27;;;6.72;;
51459;SDS011;37534;39.772;2.718;2024-02-04T10:20:38;14.65;;;9.13;;
51459;SDS011;37534;39.772;2.718;2024-02-04T10:23:04;15.82;;;9.90;;
51459;SDS011;37534;39.772;2.718;2024-02-04T10:25:30;12.65;;;7.90;;
51459;SDS011;37534;39.772;2.718;2024-02-04T10:27:55;21.88;;;15.25;;
51459;SDS011;37534;39.772;2.718;2024-02-04T10:30:22;22.80;;;19.80;;
51459;SDS011;37534;39.772;2.718;2024-02-04T10:32:51;18.17;;;16.00;;
51459;SDS011;37534;39.772;2.718;2024-02-04T10:35:17;24.10;;;16.35;;
51459;SDS011;37534;39.772;2.718;2024-02-04T10:37:47;19.38;;;13.88;;
51459;SDS011;37534;39.772;2.718;2024-02-04T10:40:13;15.63;;;13.15;;
51459;SDS011;37534;39.772;2.718;2024-02-04T10:42:38;26.65;;;20.85;;
51459;SDS011;37534;39.772;2.718;2024-02-04T10:45:08;28.10;;;18.60;;
51459;SDS011;37534;39.772;2.718;2024-02-04T10:47:37;26.05;;;20.45;;
51459;SDS011;37534;39.772;2.718;2024-02-04T10:50:03;48.95;;;28.45;;
51459;SDS011;37534;39.772;2.718;2024-02-04T10:52:31;35.17;;;23.40;;
51459;SDS011;37534;39.772;2.718;2024-02-04T10:55:01;18.48;;;13.32;;
51459;SDS011;37534;39.772;2.718;2024-02-04T10:57:28;21.90;;;14.77;;
51459;SDS011;37534;39.772;2.718;2024-02-04T10:59:55;19.55;;;13.95;;
51459;SDS011;37534;39.772;2.718;2024-02-04T11:02:22;9.98;;;8.23;;
51459;SDS011;37534;39.772;2.718;2024-02-04T11:04:48;10.40;;;9.18;;
51459;SDS011;37534;39.772;2.718;2024-02-04T11:07:17;11.45;;;7.20;;
51459;SDS011;37534;39.772;2.718;2024-02-04T11:09:45;10.23;;;6.80;;
51459;SDS011;37534;39.772;2.718;2024-02-04T11:12:14;10.43;;;7.57;;
51459;SDS011;37534;39.772;2.718;2024-02-04T11:14:42;9.93;;;7.97;;
51459;SDS011;37534;39.772;2.718;2024-02-04T11:26:05;9.85;;;8.02;;
51459;SDS011;37534;39.772;2.718;2024-02-04T11:28:32;20.05;;;9.15;;
51459;SDS011;37534;39.772;2.718;2024-02-04T11:30:58;13.30;;;8.93;;
51459;SDS011;37534;39.772;2.718;2024-02-04T11:33:24;10.13;;;9.13;;
51459;SDS011;37534;39.772;2.718;2024-02-04T11:35:59;9.50;;;7.43;;
51459;SDS011;37534;39.772;2.718;2024-02-04T11:38:37;14.30;;;9.75;;
51459;SDS011;37534;39.772;2.718;2024-02-04T11:41:03;16.25;;;12.13;;
51459;SDS011;37534;39.772;2.718;2024-02-04T11:43:31;14.50;;;9.50;;
51459;SDS011;37534;39.772;2.718;2024-02-04T11:45:57;12.00;;;9.20;;
51459;SDS011;37534;39.772;2.718;2024-02-04T11:48:32;17.35;;;10.68;;
51459;SDS011;37534;39.772;2.718;2024-02-04T11:50:59;17.30;;;11.95;;
51459;SDS011;37534;39.772;2.718;2024-02-04T11:53:26;15.77;;;11.68;;
51459;SDS011;37534;39.772;2.718;2024-02-04T11:55:57;12.10;;;9.63;;
51459;SDS011;37534;39.772;2.718;2024-02-04T11:58:25;13.45;;;9.60;;
51459;SDS011;37534;39.772;2.718;2024-02-04T12:00:52;13.45;;;9.05;;
51459;SDS011;37534;39.772;2.718;2024-02-04T12:03:28;16.58;;;9.27;;
51459;SDS011;37534;39.772;2.718;2024-02-04T12:05:54;6.95;;;5.97;;
51459;SDS011;37534;39.772;2.718;2024-02-04T12:08:20;5.65;;;4.18;;
51459;SDS011;37534;39.772;2.718;2024-02-04T12:10:46;8.05;;;3.72;;
51459;SDS011;37534;39.772;2.718;2024-02-04T12:13:13;6.68;;;3.75;;
51459;SDS011;37534;39.772;2.718;2024-02-04T12:15:38;4.50;;;3.05;;
51459;SDS011;37534;39.772;2.718;2024-02-04T12:18:09;6.43;;;4.55;;
51459;SDS011;37534;39.772;2.718;2024-02-04T12:20:35;4.10;;;2.87;;
51459;SDS011;37534;39.772;2.718;2024-02-04T12:23:02;6.63;;;3.78;;
51459;SDS011;37534;39.772;2.718;2024-02-04T12:25:29;6.30;;;2.95;;
51459;SDS011;37534;39.772;2.718;2024-02-04T12:27:57;2.47;;;2.28;;
51459;SDS011;37534;39.772;2.718;2024-02-04T12:30:24;3.65;;;2.30;;
51459;SDS011;37534;39.772;2.718;2024-02-04T12:32:59;5.35;;;2.72;;
51459;SDS011;37534;39.772;2.718;2024-02-04T12:35:26;4.90;;;3.03;;
51459;SDS011;37534;39.772;2.718;2024-02-04T12:37:56;3.97;;;2.22;;
51459;SDS011;37534;39.772;2.718;2024-02-04T12:40:23;7.70;;;2.20;;
51459;SDS011;37534;39.772;2.718;2024-02-04T12:42:58;5.68;;;2.67;;
51459;SDS011;37534;39.772;2.718;2024-02-04T12:47:52;2.47;;;1.70;;
51459;SDS011;37534;39.772;2.718;2024-02-04T12:50:19;3.13;;;2.10;;
51459;SDS011;37534;39.772;2.718;2024-02-04T12:52:46;1.77;;;1.67;;
51459;SDS011;37534;39.772;2.718;2024-02-04T12:58:10;2.00;;;1.80;;
51459;SDS011;37534;39.772;2.718;2024-02-04T13:00:42;2.95;;;2.05;;
51459;SDS011;37534;39.772;2.718;2024-02-04T13:03:08;7.40;;;2.70;;
51459;SDS011;37534;39.772;2.718;2024-02-04T13:05:34;6.28;;;2.28;;
51459;SDS011;37534;39.772;2.718;2024-02-04T13:08:01;2.72;;;1.90;;
51459;SDS011;37534;39.772;2.718;2024-02-04T13:10:29;6.60;;;2.38;;
51459;SDS011;37534;39.772;2.718;2024-02-04T13:15:30;5.40;;;2.97;;
51459;SDS011;37534;39.772;2.718;2024-02-04T13:17:57;2.53;;;1.90;;
51459;SDS011;37534;39.772;2.718;2024-02-04T13:20:24;2.65;;;1.65;;
51459;SDS011;37534;39.772;2.718;2024-02-04T13:22:50;2.00;;;1.48;;
51459;SDS011;37534;39.772;2.718;2024-02-04T13:25:15;1.90;;;1.50;;
51459;SDS011;37534;39.772;2.718;2024-02-04T13:27:41;3.00;;;1.70;;
51459;SDS011;37534;39.772;2.718;2024-02-04T13:30:07;2.53;;;1.45;;
51459;SDS011;37534;39.772;2.718;2024-02-04T13:32:38;4.85;;;1.88;;
51459;SDS011;37534;39.772;2.718;2024-02-04T13:35:05;2.85;;;1.75;;
51459;SDS011;37534;39.772;2.718;2024-02-04T13:37:32;2.53;;;1.85;;
51459;SDS011;37534;39.772;2.718;2024-02-04T13:39:58;2.35;;;1.50;;
51459;SDS011;37534;39.772;2.718;2024-02-04T13:42:23;3.42;;;2.65;;
51459;SDS011;37534;39.772;2.718;2024-02-04T13:44:49;2.90;;;2.30;;
51459;SDS011;37534;39.772;2.718;2024-02-04T13:47:14;3.75;;;3.00;;
51459;SDS011;37534;39.772;2.718;2024-02-04T13:49:40;4.13;;;2.55;;
51459;SDS011;37534;39.772;2.718;2024-02-04T13:52:05;3.05;;;1.88;;
51459;SDS011;37534;39.772;2.718;2024-02-04T13:54:31;9.13;;;2.08;;
51459;SDS011;37534;39.772;2.718;2024-02-04T13:56:56;2.03;;;1.48;;
51459;SDS011;37534;39.772;2.718;2024-02-04T13:59:22;1.67;;;1.48;;
51459;SDS011;37534;39.772;2.718;2024-02-04T14:01:47;3.85;;;1.70;;
51459;SDS011;37534;39.772;2.718;2024-02-04T14:04:13;4.00;;;1.73;;
51459;SDS011;37534;39.772;2.718;2024-02-04T14:06:38;2.03;;;1.83;;
51459;SDS011;37534;39.772;2.718;2024-02-04T14:09:04;4.05;;;2.42;;
51459;SDS011;37534;39.772;2.718;2024-02-04T14:11:30;6.82;;;2.45;;
51459;SDS011;37534;39.772;2.718;2024-02-04T14:13:56;5.68;;;2.45;;
51459;SDS011;37534;39.772;2.718;2024-02-04T14:16:21;2.38;;;1.90;;
51459;SDS011;37534;39.772;2.718;2024-02-04T14:18:47;4.38;;;2.38;;
51459;SDS011;37534;39.772;2.718;2024-02-04T14:21:12;4.00;;;2.05;;
51459;SDS011;37534;39.772;2.718;2024-02-04T14:23:41;9.85;;;2.33;;
51459;SDS011;37534;39.772;2.718;2024-02-04T14:26:08;5.20;;;3.05;;
51459;SDS011;37534;39.772;2.718;2024-02-04T14:28:40;3.17;;;2.22;;
51459;SDS011;37534;39.772;2.718;2024-02-04T14:31:09;5.43;;;2.55;;
51459;SDS011;37534;39.772;2.718;2024-02-04T14:33:34;4.80;;;2.72;;
51459;SDS011;37534;39.772;2.718;2024-02-04T14:36:00;5.65;;;2.78;;
51459;SDS011;37534;39.772;2.718;2024-02-04T14:38:26;6.05;;;2.30;;
51459;SDS011;37534;39.772;2.718;2024-02-04T14:40:52;3.55;;;2.35;;
51459;SDS011;37534;39.772;2.718;2024-02-04T14:43:17;1.95;;;1.67;;
51459;SDS011;37534;39.772;2.718;2024-02-04T14:45:43;2.92;;;2.22;;
51459;SDS011;37534;39.772;2.718;2024-02-04T14:48:09;10.80;;;2.53;;
51459;SDS011;37534;39.772;2.718;2024-02-04T14:50:35;4.35;;;3.17;;